createdAt,value
2018-09-21T00:01:44.734Z,19.90
2018-09-21T00:04:14.000Z,19.90
2018-09-21T00:06:42.484Z,19.80
2018-09-21T00:09:12.442Z,19.90
2018-09-21T00:11:41.127Z,19.80
2018-09-21T00:14:09.668Z,19.80
2018-09-21T00:16:38.450Z,19.80
2018-09-21T00:19:06.966Z,19.90
2018-09-21T00:21:35.509Z,19.90
2018-09-21T00:24:04.407Z,20.00
2018-09-21T00:26:33.104Z,20.10
2018-09-21T00:29:01.799Z,20.10
2018-09-21T00:31:30.301Z,20.10
2018-09-21T00:33:59.045Z,20.10
2018-09-21T00:36:27.592Z,20.00
2018-09-21T00:38:56.341Z,20.00
2018-09-21T00:41:24.921Z,20.00
2018-09-21T00:43:53.429Z,20.00
2018-09-21T00:46:21.975Z,20.00
2018-09-21T00:48:50.765Z,20.00
2018-09-21T00:51:19.465Z,19.90
2018-09-21T00:53:48.005Z,20.00
2018-09-21T00:56:16.693Z,19.90
2018-09-21T00:58:45.249Z,20.00
2018-09-21T01:01:14.193Z,20.00
2018-09-21T01:03:42.722Z,19.90
2018-09-21T01:06:11.464Z,19.90
2018-09-21T01:08:39.987Z,19.90
2018-09-21T01:11:08.965Z,19.90
2018-09-21T01:13:37.551Z,19.90
2018-09-21T01:16:06.213Z,19.90
2018-09-21T01:18:34.756Z,19.80
2018-09-21T01:21:03.401Z,19.80
2018-09-21T01:23:32.070Z,19.80
2018-09-21T01:26:00.821Z,19.70
2018-09-21T01:28:29.679Z,19.70
2018-09-21T01:30:58.169Z,19.70
2018-09-21T01:33:26.654Z,19.70
2018-09-21T01:35:55.272Z,19.70
2018-09-21T01:38:23.932Z,19.70
2018-09-21T01:40:52.422Z,19.70
2018-09-21T01:43:21.437Z,19.70
2018-09-21T01:45:49.938Z,19.70
2018-09-21T01:48:18.502Z,19.70
2018-09-21T01:50:47.020Z,19.70
2018-09-21T01:53:16.016Z,19.70
2018-09-21T01:55:44.694Z,19.60
2018-09-21T01:58:13.220Z,19.60
2018-09-21T02:00:41.774Z,19.60
2018-09-21T02:03:10.281Z,19.60
2018-09-21T02:05:39.247Z,19.60
2018-09-21T02:08:07.792Z,19.60
2018-09-21T02:10:36.389Z,19.60
2018-09-21T02:13:04.872Z,19.60
2018-09-21T02:15:33.356Z,19.60
2018-09-21T02:18:02.036Z,19.60
2018-09-21T02:20:30.667Z,19.70
2018-09-21T02:22:59.216Z,19.70
2018-09-21T02:32:12.430Z,19.70
2018-09-21T02:34:41.682Z,19.60
2018-09-21T02:37:10.206Z,19.60
2018-09-21T02:39:39.233Z,19.60
2018-09-21T02:42:07.775Z,19.60
2018-09-21T02:44:36.268Z,19.60
2018-09-21T02:47:04.778Z,19.70
2018-09-21T02:49:33.473Z,19.60
2018-09-21T02:52:01.993Z,19.60
2018-09-21T02:54:30.785Z,19.50
2018-09-21T02:56:59.375Z,19.60
2018-09-21T02:59:28.223Z,19.60
2018-09-21T03:01:56.809Z,19.60
2018-09-21T03:04:25.520Z,19.50
2018-09-21T03:06:54.109Z,19.50
2018-09-21T03:09:22.641Z,19.50
2018-09-21T03:11:51.142Z,19.50
2018-09-21T03:14:19.674Z,19.60
2018-09-21T03:16:48.608Z,19.60
2018-09-21T03:19:17.080Z,19.60
2018-09-21T03:21:45.875Z,19.70
2018-09-21T03:24:14.407Z,19.70
2018-09-21T03:26:43.054Z,19.70
2018-09-21T03:29:11.764Z,19.60
2018-09-21T03:31:40.258Z,19.60
2018-09-21T03:34:08.796Z,19.60
2018-09-21T03:36:37.388Z,19.70
2018-09-21T03:39:08.035Z,19.60
2018-09-21T03:41:36.884Z,19.60
2018-09-21T03:44:05.392Z,19.60
2018-09-21T03:46:33.882Z,19.50
2018-09-21T03:49:02.453Z,19.40
2018-09-21T03:51:31.038Z,19.20
2018-09-21T03:53:59.792Z,19.10
2018-09-21T03:56:28.526Z,19.10
2018-09-21T03:58:57.142Z,19.00
2018-09-21T04:01:25.718Z,19.00
2018-09-21T04:03:54.217Z,19.00
2018-09-21T04:06:22.754Z,19.00
2018-09-21T04:08:51.276Z,19.10
2018-09-21T04:11:19.818Z,19.10
2018-09-21T04:13:48.406Z,19.30
2018-09-21T04:16:17.412Z,19.20
2018-09-21T04:18:45.940Z,19.20
2018-09-21T04:21:14.469Z,19.30
2018-09-21T04:23:43.147Z,19.30
2018-09-21T04:26:11.608Z,19.30
2018-09-21T04:28:40.118Z,19.30
2018-09-21T04:31:14.204Z,19.30
2018-09-21T04:33:42.708Z,19.30
2018-09-21T04:36:11.217Z,19.20
2018-09-21T04:38:39.888Z,19.10
2018-09-21T04:41:09.656Z,19.00
2018-09-21T04:43:38.245Z,18.70
2018-09-21T04:46:07.080Z,18.50
2018-09-21T04:48:35.875Z,18.40
2018-09-21T04:51:04.402Z,18.20
2018-09-21T04:53:32.872Z,18.30
2018-09-21T04:56:01.589Z,18.30
2018-09-21T04:58:30.328Z,18.30
2018-09-21T05:00:58.906Z,18.20
2018-09-21T05:03:27.457Z,18.10
2018-09-21T05:05:55.987Z,18.10
2018-09-21T05:08:24.703Z,18.10
2018-09-21T05:10:53.421Z,18.00
2018-09-21T05:13:21.936Z,17.90
2018-09-21T05:15:50.712Z,17.90
2018-09-21T05:18:19.269Z,17.80
2018-09-21T05:20:47.869Z,17.70
2018-09-21T05:23:16.522Z,17.30
2018-09-21T05:25:45.388Z,16.60
2018-09-21T05:28:14.742Z,16.00
2018-09-21T05:30:43.267Z,15.50
2018-09-21T05:33:11.795Z,15.20
2018-09-21T05:35:40.318Z,14.90
2018-09-21T05:38:08.812Z,14.80
2018-09-21T05:40:37.300Z,14.80
2018-09-21T05:43:06.345Z,14.80
2018-09-21T05:45:34.986Z,14.70
2018-09-21T05:48:03.502Z,14.70
2018-09-21T05:50:32.240Z,14.80
2018-09-21T05:53:00.804Z,14.80
2018-09-21T05:55:29.334Z,14.80
2018-09-21T05:57:58.130Z,14.80
2018-09-21T06:00:26.608Z,14.90
2018-09-21T06:02:55.132Z,14.90
2018-09-21T06:05:23.800Z,14.80
2018-09-21T06:07:52.349Z,14.90
2018-09-21T06:10:21.263Z,14.90
2018-09-21T06:12:49.755Z,14.90
2018-09-21T06:15:18.303Z,14.90
2018-09-21T06:17:46.922Z,15.00
2018-09-21T06:20:15.553Z,15.00
2018-09-21T06:22:45.336Z,15.00
2018-09-21T06:25:13.031Z,15.10
2018-09-21T06:27:41.541Z,15.10
2018-09-21T06:30:10.213Z,15.10
2018-09-21T06:32:38.747Z,15.10
2018-09-21T06:35:07.305Z,15.10
2018-09-21T06:37:35.850Z,15.10
2018-09-21T06:40:04.385Z,15.10
2018-09-21T06:42:33.767Z,15.10
2018-09-21T06:45:02.484Z,15.10
2018-09-21T06:47:31.273Z,15.10
2018-09-21T06:50:00.003Z,15.10
2018-09-21T06:52:28.569Z,15.10
2018-09-21T06:54:57.317Z,15.20
2018-09-21T06:57:26.142Z,15.10
2018-09-21T06:59:54.875Z,15.20
2018-09-21T07:02:23.989Z,15.20
2018-09-21T07:04:52.477Z,15.20
2018-09-21T07:07:21.234Z,15.30
2018-09-21T07:09:49.848Z,15.40
2018-09-21T07:12:24.878Z,15.50
2018-09-21T07:14:53.617Z,15.50
2018-09-21T07:17:22.168Z,15.60
2018-09-21T07:19:50.974Z,15.70
2018-09-21T07:22:19.470Z,15.70
2018-09-21T07:24:48.027Z,15.70
2018-09-21T07:27:16.780Z,15.70
2018-09-21T07:29:45.397Z,15.70
2018-09-21T07:32:14.190Z,15.70
2018-09-21T07:34:42.747Z,15.70
2018-09-21T07:37:11.249Z,15.50
2018-09-21T07:39:39.800Z,15.10
2018-09-21T07:42:08.651Z,14.80
2018-09-21T07:44:37.447Z,14.60
2018-09-21T07:47:05.928Z,14.50
2018-09-21T07:49:34.580Z,14.50
2018-09-21T07:52:03.265Z,14.40
2018-09-21T07:54:32.140Z,14.50
2018-09-21T07:57:00.818Z,14.50
2018-09-21T07:59:29.475Z,14.60
2018-09-21T08:01:58.581Z,14.60
2018-09-21T08:04:27.123Z,14.50
2018-09-21T08:06:55.854Z,14.50
2018-09-21T08:09:24.409Z,14.50
2018-09-21T08:11:53.267Z,14.60
2018-09-21T08:14:21.813Z,14.60
2018-09-21T08:16:50.340Z,14.70
2018-09-21T08:19:19.439Z,14.80
2018-09-21T08:21:47.888Z,14.80
2018-09-21T08:24:16.375Z,14.90
2018-09-21T08:26:44.918Z,14.90
2018-09-21T08:29:13.440Z,15.10
2018-09-21T08:31:41.969Z,15.10
2018-09-21T08:34:10.499Z,15.20
2018-09-21T08:36:39.039Z,15.30
2018-09-21T08:39:09.584Z,15.40
2018-09-21T08:41:38.842Z,15.60
2018-09-21T08:44:07.548Z,15.60
2018-09-21T08:46:36.178Z,15.60
2018-09-21T08:49:04.876Z,15.60
2018-09-21T08:51:33.794Z,15.60
2018-09-21T08:54:02.446Z,15.70
2018-09-21T08:56:30.936Z,15.70
2018-09-21T08:58:59.774Z,15.70
2018-09-21T09:01:28.860Z,15.70
2018-09-21T09:03:57.475Z,15.70
2018-09-21T09:06:26.016Z,15.60
2018-09-21T09:08:54.719Z,15.60
2018-09-21T09:11:23.298Z,15.60
2018-09-21T09:13:52.040Z,15.50
2018-09-21T09:16:20.767Z,15.50
2018-09-21T09:18:49.410Z,15.40
2018-09-21T09:21:17.954Z,15.40
2018-09-21T09:23:46.445Z,15.40
2018-09-21T09:26:14.919Z,15.50
2018-09-21T09:28:43.600Z,15.50
2018-09-21T09:31:12.280Z,15.50
2018-09-21T09:33:41.073Z,15.50
2018-09-21T09:36:09.557Z,15.40
2018-09-21T09:38:38.067Z,15.40
2018-09-21T09:41:06.617Z,15.40
2018-09-21T09:43:35.209Z,15.40
2018-09-21T09:46:04.061Z,15.40
2018-09-21T09:48:32.637Z,15.40
2018-09-21T09:51:01.125Z,15.30
2018-09-21T09:53:29.667Z,15.30
2018-09-21T09:55:58.153Z,15.30
2018-09-21T09:58:27.138Z,15.30
2018-09-21T10:00:55.737Z,15.20
2018-09-21T10:03:25.218Z,15.10
2018-09-21T10:05:53.697Z,15.10
2018-09-21T10:08:22.475Z,15.00
2018-09-21T10:10:51.164Z,14.90
2018-09-21T10:13:19.875Z,14.90
2018-09-21T10:15:48.355Z,14.80
2018-09-21T10:18:17.093Z,14.70
2018-09-21T10:20:46.267Z,14.60
2018-09-21T10:23:14.738Z,14.60
2018-09-21T10:25:43.488Z,14.60
2018-09-21T10:28:12.134Z,14.50
2018-09-21T10:30:40.620Z,14.50
2018-09-21T10:33:09.399Z,14.60
2018-09-21T10:35:38.369Z,14.70
2018-09-21T10:38:07.322Z,14.80
2018-09-21T10:40:35.832Z,15.10
2018-09-21T10:43:04.427Z,15.40
2018-09-21T10:45:33.082Z,15.70
2018-09-21T10:48:01.613Z,15.90
2018-09-21T10:50:30.169Z,16.00
2018-09-21T10:52:58.723Z,16.30
2018-09-21T10:55:27.420Z,16.60
2018-09-21T10:57:55.973Z,16.80
2018-09-21T11:00:24.662Z,17.00
2018-09-21T11:02:53.176Z,17.00
2018-09-21T11:05:22.038Z,17.00
2018-09-21T11:07:50.564Z,17.00
2018-09-21T11:10:19.335Z,17.00
2018-09-21T11:12:47.836Z,17.00
2018-09-21T11:15:16.311Z,17.10
2018-09-21T11:17:44.840Z,17.20
2018-09-21T11:20:13.636Z,17.10
2018-09-21T11:22:42.488Z,17.10
2018-09-21T11:25:11.167Z,17.00
2018-09-21T11:27:40.012Z,17.00
2018-09-21T11:30:08.549Z,17.00
2018-09-21T11:32:37.395Z,17.20
2018-09-21T11:35:06.200Z,17.30
2018-09-21T11:37:34.718Z,17.40
2018-09-21T11:40:03.226Z,17.40
2018-09-21T11:42:31.785Z,17.40
2018-09-21T11:45:00.295Z,17.40
2018-09-21T11:47:28.865Z,17.50
2018-09-21T11:49:57.820Z,17.50
2018-09-21T11:52:26.763Z,17.40
2018-09-21T11:54:55.254Z,17.40
2018-09-21T11:57:23.770Z,17.40
2018-09-21T11:59:52.458Z,17.40
2018-09-21T12:02:21.328Z,17.60
2018-09-21T12:04:50.104Z,17.70
2018-09-21T12:07:18.641Z,17.60
2018-09-21T12:09:47.227Z,17.70
2018-09-21T12:12:15.887Z,17.70
2018-09-21T12:14:50.775Z,17.70
2018-09-21T12:17:19.454Z,17.60
2018-09-21T12:19:48.027Z,17.70
2018-09-21T12:22:16.582Z,17.80
2018-09-21T12:24:45.097Z,17.90
2018-09-21T12:27:13.586Z,17.70
2018-09-21T12:29:42.398Z,17.50
2018-09-21T12:32:11.206Z,17.20
2018-09-21T12:34:39.914Z,17.10
2018-09-21T12:37:08.920Z,17.20
2018-09-21T12:39:37.586Z,17.50
2018-09-21T12:42:06.083Z,17.80
2018-09-21T12:44:34.569Z,18.00
2018-09-21T12:47:03.320Z,18.00
2018-09-21T12:49:33.250Z,18.10
2018-09-21T12:52:01.842Z,18.20
2018-09-21T12:54:30.931Z,18.30
2018-09-21T12:56:59.459Z,18.30
2018-09-21T12:59:27.979Z,18.30
2018-09-21T13:01:56.507Z,18.10
2018-09-21T13:04:25.238Z,17.90
2018-09-21T13:06:53.813Z,17.90
2018-09-21T13:09:22.462Z,17.80
2018-09-21T13:11:50.965Z,17.70
2018-09-21T13:14:20.285Z,17.60
2018-09-21T13:16:48.806Z,17.70
2018-09-21T13:19:17.644Z,18.00
2018-09-21T13:21:46.195Z,18.10
2018-09-21T13:24:14.883Z,17.90
2018-09-21T13:26:43.376Z,17.60
2018-09-21T13:29:12.020Z,17.30
2018-09-21T13:31:40.583Z,17.10
2018-09-21T13:34:09.157Z,17.20
2018-09-21T13:36:38.037Z,17.60
2018-09-21T13:39:09.596Z,17.80
2018-09-21T13:41:38.159Z,17.80
2018-09-21T13:44:07.146Z,18.00
2018-09-21T13:46:35.981Z,18.20
2018-09-21T13:49:05.097Z,18.30
2018-09-21T13:51:33.667Z,18.50
2018-09-21T13:54:02.209Z,18.60
2018-09-21T13:56:30.750Z,18.70
2018-09-21T13:58:59.508Z,18.60
2018-09-21T14:01:28.515Z,18.50
2018-09-21T14:03:57.817Z,18.20
2018-09-21T14:06:26.321Z,17.80
2018-09-21T14:08:54.892Z,17.60
2018-09-21T14:11:23.621Z,17.50
2018-09-21T14:13:52.107Z,17.50
2018-09-21T14:16:20.777Z,17.60
2018-09-21T14:18:49.330Z,17.70
2018-09-21T14:21:17.933Z,17.80
2018-09-21T14:23:46.393Z,17.90
2018-09-21T14:26:14.932Z,17.90
2018-09-21T14:28:43.416Z,17.90
2018-09-21T14:31:11.918Z,18.10
2018-09-21T14:33:40.472Z,18.30
2018-09-21T14:36:09.208Z,18.60
2018-09-21T14:38:37.739Z,18.70
2018-09-21T14:41:06.781Z,18.60
2018-09-21T14:43:35.286Z,18.50
2018-09-21T14:46:03.967Z,18.30
2018-09-21T14:48:32.863Z,18.50
2018-09-21T14:51:01.475Z,18.60
2018-09-21T14:53:29.966Z,18.70
2018-09-21T14:55:58.985Z,18.70
2018-09-21T14:58:27.513Z,18.80
2018-09-21T15:00:56.151Z,19.00
2018-09-21T15:03:24.779Z,19.10
2018-09-21T15:05:53.445Z,19.00
2018-09-21T15:08:22.189Z,18.80
2018-09-21T15:10:50.863Z,18.80
2018-09-21T15:13:19.510Z,18.60
2018-09-21T15:15:48.251Z,18.40
2018-09-21T15:18:17.254Z,18.00
2018-09-21T15:20:46.015Z,17.80
2018-09-21T15:23:14.668Z,17.80
2018-09-21T15:25:43.183Z,17.80
2018-09-21T15:28:11.923Z,17.70
2018-09-21T15:30:40.497Z,17.80
2018-09-21T15:33:09.441Z,17.70
2018-09-21T15:35:37.969Z,17.70
2018-09-21T15:38:06.536Z,17.70
2018-09-21T15:40:35.355Z,17.70
2018-09-21T15:43:03.864Z,17.70
2018-09-21T15:45:32.392Z,17.60
2018-09-21T15:48:00.955Z,17.70
2018-09-21T15:50:29.521Z,17.50
2018-09-21T15:52:59.642Z,17.30
2018-09-21T15:55:28.170Z,17.20
2018-09-21T15:57:57.090Z,17.10
2018-09-21T16:00:26.115Z,17.10
2018-09-21T16:02:55.540Z,17.50
2018-09-21T16:05:24.311Z,17.90
2018-09-21T16:07:52.867Z,18.20
2018-09-21T16:10:21.366Z,18.30
2018-09-21T16:12:49.905Z,18.40
2018-09-21T16:15:19.411Z,18.40
2018-09-21T16:17:48.055Z,18.40
2018-09-21T16:20:16.798Z,18.20
2018-09-21T16:22:45.338Z,18.00
2018-09-21T16:25:14.067Z,18.10
2018-09-21T16:27:42.575Z,18.20
2018-09-21T16:30:11.466Z,18.40
2018-09-21T16:32:44.917Z,18.40
2018-09-21T16:35:14.290Z,18.50
2018-09-21T16:37:44.246Z,18.40
2018-09-21T16:40:13.005Z,18.20
2018-09-21T16:42:41.489Z,18.10
2018-09-21T16:51:54.370Z,18.20
2018-09-21T16:54:23.687Z,17.90
2018-09-21T16:56:52.826Z,17.80
2018-09-21T16:59:21.464Z,17.80
2018-09-21T17:01:50.002Z,17.60
2018-09-21T17:04:18.973Z,17.40
2018-09-21T17:06:49.462Z,17.30
2018-09-21T17:09:18.085Z,17.40
2018-09-21T17:11:46.810Z,17.30
2018-09-21T17:14:15.617Z,17.10
2018-09-21T17:16:44.591Z,17.00
2018-09-21T17:19:14.262Z,16.90
2018-09-21T17:21:42.771Z,16.80
2018-09-21T17:24:11.336Z,16.70
2018-09-21T17:26:39.959Z,16.60
2018-09-21T17:29:08.643Z,16.40
2018-09-21T17:31:38.051Z,16.20
2018-09-21T17:34:06.849Z,16.20
2018-09-21T17:36:35.469Z,16.10
2018-09-21T17:39:05.049Z,16.00
2018-09-21T17:41:33.564Z,15.90
2018-09-21T17:44:02.595Z,15.80
2018-09-21T17:46:31.217Z,15.70
2018-09-21T17:48:59.782Z,15.70
2018-09-21T17:51:28.403Z,15.60
2018-09-21T17:53:57.677Z,15.60
2018-09-21T17:56:26.200Z,15.60
2018-09-21T17:58:55.259Z,15.50
2018-09-21T18:01:24.039Z,15.40
2018-09-21T18:03:52.914Z,15.40
2018-09-21T18:06:21.851Z,15.40
2018-09-21T18:08:50.353Z,15.30
2018-09-21T18:11:20.325Z,15.20
2018-09-21T18:13:48.857Z,15.10
2018-09-21T18:16:18.294Z,15.10
2018-09-21T18:18:47.045Z,15.10
2018-09-21T18:21:15.600Z,15.10
2018-09-21T18:23:44.218Z,15.10
2018-09-21T18:26:13.034Z,15.10
2018-09-21T18:28:41.536Z,15.20
2018-09-21T18:31:10.394Z,15.20
2018-09-21T18:33:39.032Z,15.10
2018-09-21T18:36:08.960Z,15.10
2018-09-21T18:38:39.690Z,15.00
2018-09-21T18:41:09.559Z,15.00
2018-09-21T18:43:39.083Z,14.90
2018-09-21T18:46:08.269Z,14.90
2018-09-21T18:48:36.844Z,14.90
2018-09-21T18:51:06.312Z,14.90
2018-09-21T18:53:34.870Z,14.80
2018-09-21T18:56:03.432Z,14.80
2018-09-21T18:58:32.269Z,14.80
2018-09-21T19:01:00.798Z,14.80
2018-09-21T19:03:29.428Z,14.80
2018-09-21T19:05:57.970Z,14.80
2018-09-21T19:08:26.514Z,14.80
2018-09-21T19:10:56.515Z,14.90
2018-09-21T19:13:25.416Z,14.90
2018-09-21T19:15:54.954Z,14.80
2018-09-21T19:18:24.348Z,14.80
2018-09-21T19:20:52.909Z,14.70
2018-09-21T19:23:21.501Z,14.70
2018-09-21T19:25:50.064Z,14.80
2018-09-21T19:28:18.595Z,14.70
2018-09-21T19:30:47.147Z,14.60
2018-09-21T19:33:15.922Z,14.60
2018-09-21T19:35:44.726Z,14.50
2018-09-21T19:38:14.495Z,14.50
2018-09-21T19:40:43.379Z,14.40
2018-09-21T19:43:11.861Z,14.30
2018-09-21T19:47:09.880Z,14.30
2018-09-21T19:49:38.398Z,14.30
2018-09-21T19:52:06.941Z,14.30
2018-09-21T19:54:35.551Z,14.30
2018-09-21T19:57:04.081Z,14.30
2018-09-21T19:59:32.609Z,14.20
2018-09-21T20:02:01.121Z,14.20
2018-09-21T20:04:29.680Z,14.20
2018-09-21T20:06:58.875Z,14.20
2018-09-21T20:09:27.492Z,14.20
2018-09-21T20:11:56.321Z,14.20
2018-09-21T20:14:24.884Z,14.10
2018-09-21T20:16:53.390Z,14.10
2018-09-21T20:19:23.054Z,14.20
2018-09-21T20:21:51.574Z,14.20
2018-09-21T20:24:20.133Z,14.10
2018-09-21T20:26:48.670Z,14.10
2018-09-21T20:29:17.469Z,14.10
2018-09-21T20:31:51.297Z,14.10
2018-09-21T20:34:19.807Z,14.00
2018-09-21T20:36:48.684Z,14.00
2018-09-21T20:39:18.434Z,13.90
2018-09-21T20:41:47.176Z,13.90
2018-09-21T20:44:16.456Z,13.80
2018-09-21T20:46:45.186Z,13.70
2018-09-21T20:49:13.729Z,13.70
2018-09-21T20:51:42.679Z,13.70
2018-09-21T20:54:11.510Z,13.70
2018-09-21T20:56:40.568Z,13.70
2018-09-21T20:59:09.526Z,13.60
2018-09-21T21:01:38.188Z,13.70
2018-09-21T21:04:06.980Z,13.60
2018-09-21T21:06:35.852Z,13.60
2018-09-21T21:09:06.158Z,13.60
2018-09-21T21:11:34.785Z,13.60
2018-09-21T21:14:03.300Z,13.50
2018-09-21T21:16:32.029Z,13.50
2018-09-21T21:19:07.037Z,13.50
2018-09-21T21:21:35.857Z,13.40
2018-09-21T21:24:04.821Z,13.40
2018-09-21T21:26:33.655Z,13.40
2018-09-21T21:29:02.231Z,13.30
2018-09-21T21:31:31.145Z,13.30
2018-09-21T21:33:59.643Z,13.20
2018-09-21T21:36:28.136Z,13.20
2018-09-21T21:38:56.995Z,13.10
2018-09-21T21:41:26.961Z,13.10
2018-09-21T21:43:55.477Z,13.00
2018-09-21T21:46:23.983Z,13.00
2018-09-21T21:48:53.142Z,13.00
2018-09-21T21:52:51.239Z,13.00
2018-09-21T21:55:19.803Z,13.00
2018-09-21T21:57:48.572Z,12.90
2018-09-21T22:00:18.023Z,12.90
2018-09-21T22:02:48.230Z,13.00
2018-09-21T22:05:16.993Z,13.00
2018-09-21T22:07:45.479Z,12.90
2018-09-21T22:10:13.965Z,12.90
2018-09-21T22:12:47.791Z,12.90
2018-09-21T22:15:18.215Z,12.90
2018-09-21T22:17:47.557Z,12.80
2018-09-21T22:20:19.901Z,12.80
2018-09-21T22:22:48.407Z,12.80
2018-09-21T22:25:16.961Z,12.80
2018-09-21T22:27:45.924Z,12.70
2018-09-21T22:30:14.448Z,12.70
2018-09-21T22:32:43.004Z,12.70
2018-09-21T22:35:11.506Z,12.70
2018-09-21T22:37:40.021Z,12.70
2018-09-21T22:40:08.533Z,12.60
2018-09-21T22:42:37.333Z,12.70
2018-09-21T22:45:06.078Z,12.70
2018-09-21T22:47:34.770Z,12.70
2018-09-21T22:50:03.830Z,12.60
2018-09-21T22:52:32.316Z,12.60
2018-09-21T22:55:00.910Z,12.50
2018-09-21T22:57:29.454Z,12.50
2018-09-21T22:59:58.026Z,12.50
2018-09-21T23:02:26.919Z,12.50
2018-09-21T23:04:55.397Z,12.60
2018-09-21T23:07:23.967Z,12.60
2018-09-21T23:09:52.559Z,12.90
2018-09-21T23:12:21.096Z,12.60
2018-09-21T23:14:49.595Z,12.60
2018-09-21T23:17:18.154Z,12.60
2018-09-21T23:19:46.842Z,12.60
2018-09-21T23:22:15.696Z,12.60
2018-09-21T23:24:44.391Z,12.60
2018-09-21T23:27:12.895Z,12.60
2018-09-21T23:29:41.579Z,12.60
2018-09-21T23:32:10.304Z,12.60
2018-09-21T23:34:39.061Z,12.60
2018-09-21T23:37:07.731Z,12.50
2018-09-21T23:39:36.264Z,12.60
2018-09-21T23:42:04.751Z,12.60
2018-09-21T23:44:33.533Z,12.60
2018-09-21T23:47:02.525Z,12.60
2018-09-21T23:49:31.055Z,12.60
2018-09-21T23:51:59.619Z,12.60
2018-09-21T23:54:28.143Z,12.60
2018-09-21T23:56:56.678Z,12.50
2018-09-21T23:59:25.227Z,12.60
